createdAt,value
2019-01-24T00:02:07.280Z,-7.30
2019-01-24T00:04:37.532Z,-7.20
2019-01-24T00:07:07.690Z,-7.10
2019-01-24T00:09:37.874Z,-7.00
2019-01-24T00:12:08.090Z,-7.00
2019-01-24T00:14:38.226Z,-6.90
2019-01-24T00:17:08.397Z,-6.80
2019-01-24T00:19:38.584Z,-6.80
2019-01-24T00:22:08.760Z,-6.80
2019-01-24T00:24:38.948Z,-6.80
2019-01-24T00:29:40.575Z,-6.80
2019-01-24T00:32:10.700Z,-6.80
2019-01-24T00:34:40.892Z,-6.90
2019-01-24T00:37:11.016Z,-7.00
2019-01-24T00:39:41.118Z,-7.10
2019-01-24T00:42:11.192Z,-7.20
2019-01-24T00:44:41.336Z,-7.20
2019-01-24T00:47:11.439Z,-7.20
2019-01-24T00:49:41.518Z,-7.20
2019-01-24T00:52:11.653Z,-7.20
2019-01-24T00:54:41.883Z,-7.30
2019-01-24T00:57:11.977Z,-7.30
2019-01-24T00:59:42.169Z,-7.20
2019-01-24T01:02:12.401Z,-7.10
2019-01-24T01:04:43.306Z,-7.20
2019-01-24T01:07:13.431Z,-7.20
2019-01-24T01:09:43.592Z,-7.30
2019-01-24T01:12:13.684Z,-7.30
2019-01-24T01:14:43.846Z,-7.30
2019-01-24T01:17:13.942Z,-7.30
2019-01-24T01:19:44.113Z,-7.30
2019-01-24T01:22:14.186Z,-7.20
2019-01-24T01:24:44.323Z,-7.20
2019-01-24T01:27:15.524Z,-7.20
2019-01-24T01:29:45.752Z,-7.10
2019-01-24T01:32:15.902Z,-7.10
2019-01-24T01:34:46.002Z,-7.10
2019-01-24T01:37:16.137Z,-7.10
2019-01-24T01:39:46.296Z,-7.10
2019-01-24T01:42:16.346Z,-7.20
2019-01-24T01:44:46.468Z,-7.30
2019-01-24T01:47:16.596Z,-7.30
2019-01-24T01:49:46.685Z,-7.30
2019-01-24T01:52:16.812Z,-7.30
2019-01-24T01:54:46.874Z,-7.40
2019-01-24T01:57:16.852Z,-7.40
2019-01-24T01:59:47.046Z,-7.40
2019-01-24T02:02:17.073Z,-7.30
2019-01-24T02:04:48.313Z,-7.30
2019-01-24T02:07:18.358Z,-7.30
2019-01-24T02:09:48.458Z,-7.30
2019-01-24T02:12:18.584Z,-7.20
2019-01-24T02:14:48.618Z,-7.20
2019-01-24T02:17:18.651Z,-7.30
2019-01-24T02:19:48.748Z,-7.30
2019-01-24T02:22:18.774Z,-7.40
2019-01-24T02:24:48.946Z,-7.40
2019-01-24T02:27:19.050Z,-7.40
2019-01-24T02:29:49.244Z,-7.40
2019-01-24T02:32:19.190Z,-7.40
2019-01-24T02:34:49.829Z,-7.40
2019-01-24T02:37:20.165Z,-7.40
2019-01-24T02:39:50.266Z,-7.50
2019-01-24T02:42:20.395Z,-7.40
2019-01-24T02:44:50.558Z,-7.50
2019-01-24T02:47:20.600Z,-7.50
2019-01-24T02:49:50.680Z,-7.60
2019-01-24T02:52:20.771Z,-7.60
2019-01-24T02:54:50.869Z,-7.70
2019-01-24T02:57:21.050Z,-7.70
2019-01-24T02:59:51.250Z,-7.70
2019-01-24T03:02:21.324Z,-7.70
2019-01-24T03:04:56.866Z,-7.60
2019-01-24T03:07:23.867Z,-7.70
2019-01-24T03:09:54.054Z,-7.70
2019-01-24T03:12:24.115Z,-7.70
2019-01-24T03:14:55.352Z,-7.70
2019-01-24T03:17:25.508Z,-7.80
2019-01-24T03:19:55.707Z,-7.90
2019-01-24T03:22:25.744Z,-7.90
2019-01-24T03:24:55.938Z,-8.00
2019-01-24T03:27:25.929Z,-8.10
2019-01-24T03:29:56.039Z,-8.10
2019-01-24T03:32:26.171Z,-8.20
2019-01-24T03:34:56.427Z,-8.20
2019-01-24T03:37:26.699Z,-8.10
2019-01-24T03:39:56.784Z,-8.20
2019-01-24T03:42:26.946Z,-8.20
2019-01-24T03:44:57.204Z,-8.30
2019-01-24T03:47:27.336Z,-8.30
2019-01-24T03:49:57.568Z,-8.40
2019-01-24T03:52:27.719Z,-8.50
2019-01-24T03:54:57.902Z,-8.50
2019-01-24T03:57:28.124Z,-8.50
2019-01-24T03:59:58.374Z,-8.50
2019-01-24T04:02:28.512Z,-8.50
2019-01-24T04:04:58.768Z,-8.60
2019-01-24T04:07:28.973Z,-8.70
2019-01-24T04:09:59.214Z,-8.60
2019-01-24T04:12:29.280Z,-8.60
2019-01-24T04:14:59.501Z,-8.40
2019-01-24T04:17:29.549Z,-8.40
2019-01-24T04:19:59.740Z,-8.20
2019-01-24T04:22:29.862Z,-8.10
2019-01-24T04:25:00.038Z,-8.10
2019-01-24T04:27:30.173Z,-8.30
2019-01-24T04:30:00.346Z,-8.40
2019-01-24T04:32:30.478Z,-8.40
2019-01-24T04:35:00.640Z,-8.40
2019-01-24T04:37:30.763Z,-8.30
2019-01-24T04:40:00.879Z,-8.20
2019-01-24T04:42:31.028Z,-8.20
2019-01-24T04:45:01.158Z,-8.10
2019-01-24T04:47:31.281Z,-8.10
2019-01-24T04:50:01.404Z,-8.20
2019-01-24T04:52:31.583Z,-8.10
2019-01-24T04:55:01.855Z,-8.00
2019-01-24T04:57:32.014Z,-8.00
2019-01-24T05:00:02.166Z,-7.90
2019-01-24T05:02:32.221Z,-7.90
2019-01-24T05:05:02.526Z,-7.90
2019-01-24T05:07:32.546Z,-7.90
2019-01-24T05:10:02.687Z,-7.90
2019-01-24T05:12:32.777Z,-7.90
2019-01-24T05:15:02.880Z,-7.80
2019-01-24T05:17:32.870Z,-7.80
2019-01-24T05:20:03.032Z,-7.80
2019-01-24T05:22:33.094Z,-7.80
2019-01-24T05:25:03.221Z,-7.80
2019-01-24T05:27:33.276Z,-7.80
2019-01-24T05:30:03.457Z,-7.70
2019-01-24T05:32:33.692Z,-7.80
2019-01-24T05:35:03.913Z,-7.70
2019-01-24T05:37:33.996Z,-7.70
2019-01-24T05:40:05.174Z,-7.70
2019-01-24T05:42:35.337Z,-7.60
2019-01-24T05:45:06.037Z,-7.70
2019-01-24T05:47:36.031Z,-7.60
2019-01-24T05:50:06.796Z,-7.60
2019-01-24T05:52:36.920Z,-7.60
2019-01-24T05:55:07.755Z,-7.50
2019-01-24T05:57:37.896Z,-7.50
2019-01-24T06:00:11.835Z,-7.50
2019-01-24T06:02:41.888Z,-7.50
2019-01-24T06:05:12.470Z,-7.30
2019-01-24T06:07:42.552Z,-7.20
2019-01-24T06:10:14.216Z,-7.20
2019-01-24T06:12:44.258Z,-7.10
2019-01-24T06:15:15.362Z,-7.10
2019-01-24T06:17:45.501Z,-7.00
2019-01-24T06:20:15.647Z,-7.00
2019-01-24T06:22:45.808Z,-7.00
2019-01-24T06:25:15.977Z,-6.90
2019-01-24T06:27:46.113Z,-6.90
2019-01-24T06:30:18.150Z,-6.80
2019-01-24T06:32:48.206Z,-6.80
2019-01-24T06:35:18.393Z,-6.70
2019-01-24T06:37:48.544Z,-6.70
2019-01-24T06:40:18.859Z,-6.60
2019-01-24T06:42:48.907Z,-6.60
2019-01-24T06:45:20.937Z,-6.60
2019-01-24T06:47:51.031Z,-6.50
2019-01-24T06:50:21.149Z,-6.50
2019-01-24T06:52:51.169Z,-6.40
2019-01-24T06:55:24.137Z,-6.40
2019-01-24T06:57:54.180Z,-6.30
2019-01-24T07:00:25.262Z,-6.30
2019-01-24T07:02:55.295Z,-6.20
2019-01-24T07:05:25.475Z,-6.20
2019-01-24T07:07:55.551Z,-6.20
2019-01-24T07:10:25.803Z,-6.10
2019-01-24T07:12:55.942Z,-6.10
2019-01-24T07:15:26.238Z,-6.10
2019-01-24T07:17:56.330Z,-6.10
2019-01-24T07:20:26.525Z,-6.00
2019-01-24T07:22:56.653Z,-6.00
2019-01-24T07:25:27.816Z,-6.00
2019-01-24T07:27:57.885Z,-6.00
2019-01-24T07:30:28.069Z,-6.00
2019-01-24T07:32:58.200Z,-6.00
2019-01-24T07:35:28.307Z,-5.90
2019-01-24T07:37:58.372Z,-5.80
2019-01-24T07:40:28.652Z,-5.70
2019-01-24T07:42:58.839Z,-5.60
2019-01-24T07:45:31.552Z,-5.50
2019-01-24T07:48:01.685Z,-5.50
2019-01-24T07:50:31.781Z,-5.30
2019-01-24T07:53:21.045Z,-5.20
2019-01-24T07:55:51.113Z,-5.20
2019-01-24T07:58:22.222Z,-5.10
2019-01-24T08:00:52.387Z,-5.00
2019-01-24T08:03:22.415Z,-5.00
2019-01-24T08:05:52.530Z,-4.80
2019-01-24T08:08:22.635Z,-4.80
2019-01-24T08:10:52.742Z,-4.70
2019-01-24T08:13:22.846Z,-4.70
2019-01-24T08:15:53.007Z,-4.60
2019-01-24T08:18:23.180Z,-4.60
2019-01-24T08:20:53.352Z,-4.50
2019-01-24T08:23:23.485Z,-4.50
2019-01-24T08:25:53.655Z,-4.40
2019-01-24T08:28:23.651Z,-4.40
2019-01-24T08:30:53.896Z,-4.30
2019-01-24T08:33:24.211Z,-4.30
2019-01-24T08:35:54.373Z,-4.30
2019-01-24T08:38:24.529Z,-4.20
2019-01-24T08:40:54.689Z,-4.20
2019-01-24T08:43:24.791Z,-4.20
2019-01-24T08:45:54.963Z,-4.20
2019-01-24T08:48:25.097Z,-4.10
2019-01-24T08:50:55.221Z,-4.00
2019-01-24T08:53:25.269Z,-4.00
2019-01-24T08:55:55.461Z,-4.00
2019-01-24T08:58:25.597Z,-3.90
2019-01-24T09:00:55.772Z,-3.80
2019-01-24T09:03:25.914Z,-3.80
2019-01-24T09:05:56.176Z,-3.70
2019-01-24T09:08:26.352Z,-3.70
2019-01-24T09:10:56.519Z,-3.60
2019-01-24T09:13:26.661Z,-3.60
2019-01-24T09:15:56.855Z,-3.40
2019-01-24T09:18:27.999Z,-3.40
2019-01-24T09:20:58.188Z,-3.40
2019-01-24T09:23:28.345Z,-3.40
2019-01-24T09:25:58.556Z,-3.30
2019-01-24T09:28:28.641Z,-3.30
2019-01-24T09:30:58.916Z,-3.20
2019-01-24T09:33:29.101Z,-3.20
2019-01-24T09:35:59.229Z,-3.20
2019-01-24T09:38:30.262Z,-3.20
2019-01-24T09:41:00.560Z,-3.10
2019-01-24T09:43:31.827Z,-3.10
2019-01-24T09:46:02.064Z,-3.00
2019-01-24T09:48:32.319Z,-3.00
2019-01-24T09:51:02.527Z,-3.10
2019-01-24T09:53:32.667Z,-3.10
2019-01-24T09:56:02.970Z,-3.10
2019-01-24T09:58:33.139Z,-3.00
2019-01-24T10:01:04.627Z,-2.90
2019-01-24T10:03:34.664Z,-2.90
2019-01-24T10:06:06.022Z,-2.90
2019-01-24T10:08:36.177Z,-2.90
2019-01-24T10:11:06.347Z,-2.90
2019-01-24T10:13:36.518Z,-2.80
2019-01-24T10:16:06.648Z,-2.70
2019-01-24T10:18:36.722Z,-2.70
2019-01-24T10:21:06.907Z,-2.60
2019-01-24T10:23:37.097Z,-2.60
2019-01-24T10:26:10.142Z,-2.60
2019-01-24T10:28:40.577Z,-2.60
2019-01-24T10:31:10.751Z,-2.60
2019-01-24T10:33:40.854Z,-2.50
2019-01-24T10:36:10.937Z,-2.50
2019-01-24T10:38:41.069Z,-2.60
2019-01-24T10:41:11.207Z,-2.60
2019-01-24T10:43:41.283Z,-2.60
2019-01-24T10:46:11.439Z,-2.60
2019-01-24T10:48:41.622Z,-2.60
2019-01-24T10:51:11.766Z,-2.60
2019-01-24T10:53:41.876Z,-2.60
2019-01-24T10:56:12.185Z,-2.70
2019-01-24T10:58:42.356Z,-2.60
2019-01-24T11:01:12.619Z,-2.60
2019-01-24T11:03:42.791Z,-2.50
2019-01-24T11:06:12.978Z,-2.60
2019-01-24T11:08:52.756Z,-2.60
2019-01-24T11:11:22.875Z,-2.60
2019-01-24T11:13:52.988Z,-2.50
2019-01-24T11:16:23.496Z,-2.60
2019-01-24T11:18:53.886Z,-2.60
2019-01-24T11:21:24.084Z,-2.60
2019-01-24T11:23:54.141Z,-2.70
2019-01-24T11:26:24.384Z,-2.70
2019-01-24T11:28:54.592Z,-2.60
2019-01-24T11:31:24.751Z,-2.60
2019-01-24T11:33:54.962Z,-2.60
2019-01-24T11:36:25.297Z,-2.50
2019-01-24T11:38:55.435Z,-2.50
2019-01-24T11:41:25.605Z,-2.30
2019-01-24T11:43:55.750Z,-2.30
2019-01-24T11:46:25.943Z,-2.30
2019-01-24T11:48:56.064Z,-2.30
2019-01-24T11:51:26.240Z,-2.20
2019-01-24T11:53:56.309Z,-2.30
2019-01-24T11:56:26.442Z,-2.30
2019-01-24T11:58:56.576Z,-2.40
2019-01-24T12:01:26.826Z,-2.30
2019-01-24T12:03:56.980Z,-2.30
2019-01-24T12:06:27.752Z,-2.20
2019-01-24T12:08:57.899Z,-2.30
2019-01-24T12:11:28.176Z,-2.20
2019-01-24T12:13:58.240Z,-2.30
2019-01-24T12:16:28.416Z,-2.20
2019-01-24T12:18:58.591Z,-2.30
2019-01-24T12:21:28.944Z,-2.40
2019-01-24T12:23:59.140Z,-2.50
2019-01-24T12:26:29.391Z,-2.40
2019-01-24T12:28:59.592Z,-2.40
2019-01-24T12:31:29.863Z,-2.50
2019-01-24T12:34:00.041Z,-2.50
2019-01-24T12:36:30.158Z,-2.40
2019-01-24T12:39:00.343Z,-2.30
2019-01-24T12:41:31.500Z,-2.40
2019-01-24T12:44:01.578Z,-2.40
2019-01-24T12:46:31.799Z,-2.40
2019-01-24T12:49:02.608Z,-2.50
2019-01-24T12:51:33.174Z,-2.60
2019-01-24T12:54:03.353Z,-2.60
2019-01-24T12:56:33.524Z,-2.70
2019-01-24T12:59:03.660Z,-2.70
2019-01-24T13:01:33.758Z,-2.70
2019-01-24T13:04:03.756Z,-2.80
2019-01-24T13:06:34.288Z,-2.70
2019-01-24T13:09:06.556Z,-2.60
2019-01-24T13:11:36.780Z,-2.60
2019-01-24T13:14:06.943Z,-2.60
2019-01-24T13:16:37.111Z,-2.70
2019-01-24T13:19:07.261Z,-2.70
2019-01-24T13:21:37.384Z,-2.70
2019-01-24T13:24:08.265Z,-2.70
2019-01-24T13:26:38.372Z,-2.70
2019-01-24T13:29:08.534Z,-2.80
2019-01-24T13:31:38.797Z,-2.80
2019-01-24T13:34:09.034Z,-2.80
2019-01-24T13:36:39.632Z,-2.80
2019-01-24T13:39:11.561Z,-2.70
2019-01-24T13:41:42.571Z,-2.70
2019-01-24T13:44:12.849Z,-2.70
2019-01-24T13:46:43.041Z,-2.70
2019-01-24T13:49:13.672Z,-2.70
2019-01-24T13:51:43.992Z,-2.80
2019-01-24T13:54:14.474Z,-2.80
2019-01-24T13:56:45.811Z,-2.80
2019-01-24T13:59:16.038Z,-2.80
2019-01-24T14:01:46.365Z,-2.70
2019-01-24T14:04:20.473Z,-2.70
2019-01-24T14:06:50.723Z,-2.60
2019-01-24T14:09:20.889Z,-2.60
2019-01-24T14:11:51.279Z,-2.60
2019-01-24T14:14:21.462Z,-2.70
2019-01-24T14:16:51.645Z,-2.80
2019-01-24T14:19:21.816Z,-2.70
2019-01-24T14:21:52.003Z,-2.70
2019-01-24T14:24:22.195Z,-2.80
2019-01-24T14:26:52.383Z,-2.80
2019-01-24T14:29:24.290Z,-2.80
2019-01-24T14:31:54.450Z,-2.70
2019-01-24T14:34:24.520Z,-2.80
2019-01-24T14:36:54.750Z,-2.80
2019-01-24T14:39:24.808Z,-2.80
2019-01-24T14:41:54.977Z,-2.70
2019-01-24T14:44:25.139Z,-2.80
2019-01-24T14:46:55.325Z,-2.90
2019-01-24T14:49:25.491Z,-2.80
2019-01-24T14:51:55.650Z,-2.80
2019-01-24T14:54:25.698Z,-2.80
2019-01-24T14:56:56.061Z,-2.90
2019-01-24T14:59:26.237Z,-2.90
2019-01-24T15:01:56.338Z,-2.90
2019-01-24T15:04:26.498Z,-3.00
2019-01-24T15:06:56.754Z,-3.10
2019-01-24T15:09:26.933Z,-3.10
2019-01-24T15:11:57.078Z,-3.00
2019-01-24T15:14:27.200Z,-3.00
2019-01-24T15:16:57.330Z,-3.00
2019-01-24T15:19:27.480Z,-3.00
2019-01-24T15:21:57.601Z,-3.00
2019-01-24T15:24:27.742Z,-3.00
2019-01-24T15:26:57.932Z,-3.10
2019-01-24T15:29:29.076Z,-3.00
2019-01-24T15:31:59.273Z,-3.00
2019-01-24T15:34:29.420Z,-3.00
2019-01-24T15:36:59.821Z,-3.10
2019-01-24T15:39:29.999Z,-3.10
2019-01-24T15:42:00.212Z,-3.20
2019-01-24T15:44:30.310Z,-3.20
2019-01-24T15:47:00.582Z,-3.20
2019-01-24T15:49:30.920Z,-3.20
2019-01-24T15:52:01.142Z,-3.20
2019-01-24T15:54:31.341Z,-3.20
2019-01-24T15:57:01.520Z,-3.20
2019-01-24T15:59:31.813Z,-3.20
2019-01-24T16:02:01.992Z,-3.30
2019-01-24T16:04:32.255Z,-3.20
2019-01-24T16:07:02.473Z,-3.30
2019-01-24T16:09:32.754Z,-3.30
2019-01-24T16:12:02.928Z,-3.30
2019-01-24T16:14:33.041Z,-3.30
2019-01-24T16:17:03.348Z,-3.30
2019-01-24T16:19:33.606Z,-3.30
2019-01-24T16:22:03.784Z,-3.30
2019-01-24T16:24:33.971Z,-3.30
2019-01-24T16:27:04.964Z,-3.30
2019-01-24T16:29:35.112Z,-3.30
2019-01-24T16:32:06.229Z,-3.30
2019-01-24T16:34:36.437Z,-3.40
2019-01-24T16:37:06.532Z,-3.40
2019-01-24T16:39:36.737Z,-3.30
2019-01-24T16:42:06.902Z,-3.30
2019-01-24T16:44:37.161Z,-3.30
2019-01-24T16:47:07.239Z,-3.30
2019-01-24T16:49:37.530Z,-3.40
2019-01-24T16:52:07.717Z,-3.40
2019-01-24T16:54:37.980Z,-3.40
2019-01-24T16:57:08.112Z,-3.30
2019-01-24T16:59:38.359Z,-3.40
2019-01-24T17:02:08.478Z,-3.40
2019-01-24T17:04:38.696Z,-3.40
2019-01-24T17:07:09.091Z,-3.40
2019-01-24T17:09:39.322Z,-3.50
2019-01-24T17:12:09.504Z,-3.40
2019-01-24T17:14:39.706Z,-3.50
2019-01-24T17:17:10.025Z,-3.40
2019-01-24T17:19:40.331Z,-3.40
2019-01-24T17:22:10.516Z,-3.40
2019-01-24T17:24:40.722Z,-3.50
2019-01-24T17:27:10.830Z,-3.40
2019-01-24T17:29:41.183Z,-3.40
2019-01-24T17:32:11.472Z,-3.50
2019-01-24T17:34:41.924Z,-3.50
2019-01-24T17:37:12.083Z,-3.50
2019-01-24T17:39:42.304Z,-3.40
2019-01-24T17:42:12.432Z,-3.50
2019-01-24T17:44:42.698Z,-3.50
2019-01-24T17:47:13.472Z,-3.50
2019-01-24T17:49:43.667Z,-3.50
2019-01-24T17:52:13.840Z,-3.50
2019-01-24T17:54:43.884Z,-3.50
2019-01-24T17:57:13.980Z,-3.50
2019-01-24T17:59:44.030Z,-3.50
2019-01-24T18:02:14.286Z,-3.40
2019-01-24T18:04:44.552Z,-3.50
2019-01-24T18:07:14.831Z,-3.50
2019-01-24T18:09:44.955Z,-3.50
2019-01-24T18:12:15.149Z,-3.50
2019-01-24T18:14:45.340Z,-3.40
2019-01-24T18:17:15.521Z,-3.40
2019-01-24T18:19:45.787Z,-3.50
2019-01-24T18:22:15.966Z,-3.50
2019-01-24T18:24:46.124Z,-3.50
2019-01-24T18:27:16.284Z,-3.50
2019-01-24T18:29:46.563Z,-3.40
2019-01-24T18:32:16.733Z,-3.40
2019-01-24T18:34:46.869Z,-3.50
2019-01-24T18:37:17.009Z,-3.50
2019-01-24T18:39:47.141Z,-3.50
2019-01-24T18:42:17.307Z,-3.50
2019-01-24T18:44:47.746Z,-3.40
2019-01-24T18:47:19.219Z,-3.50
2019-01-24T18:49:49.360Z,-3.50
2019-01-24T18:52:19.510Z,-3.50
2019-01-24T18:54:49.612Z,-3.50
2019-01-24T18:57:19.733Z,-3.40
2019-01-24T18:59:49.797Z,-3.50
2019-01-24T19:02:19.977Z,-3.50
2019-01-24T19:04:50.170Z,-3.50
2019-01-24T19:07:20.543Z,-3.50
2019-01-24T19:09:50.601Z,-3.50
2019-01-24T19:12:20.795Z,-3.50
2019-01-24T19:14:52.003Z,-3.60
2019-01-24T19:17:22.205Z,-3.50
2019-01-24T19:19:52.376Z,-3.50
2019-01-24T19:22:22.564Z,-3.50
2019-01-24T19:24:52.633Z,-3.60
2019-01-24T19:27:22.862Z,-3.50
2019-01-24T19:29:53.077Z,-3.60
2019-01-24T19:32:23.231Z,-3.60
2019-01-24T19:34:53.433Z,-3.60
2019-01-24T19:37:23.622Z,-3.50
2019-01-24T19:39:53.778Z,-3.60
2019-01-24T19:42:24.983Z,-3.60
2019-01-24T19:44:55.138Z,-3.60
2019-01-24T19:47:36.888Z,-3.60
2019-01-24T19:50:09.014Z,-3.60
2019-01-24T19:52:39.588Z,-3.50
2019-01-24T19:55:10.795Z,-3.50
2019-01-24T19:57:41.063Z,-3.50
2019-01-24T20:00:14.429Z,-3.50
2019-01-24T20:02:44.720Z,-3.60
2019-01-24T20:05:15.406Z,-3.60
2019-01-24T20:07:45.750Z,-3.60
2019-01-24T20:10:17.909Z,-3.60
2019-01-24T20:12:48.194Z,-3.60
2019-01-24T20:15:20.362Z,-3.50
2019-01-24T20:17:50.730Z,-3.50
2019-01-24T20:20:20.952Z,-3.60
2019-01-24T20:22:51.538Z,-3.60
2019-01-24T20:25:23.785Z,-3.60
2019-01-24T20:27:54.003Z,-3.50
2019-01-24T20:30:28.920Z,-3.50
2019-01-24T20:33:00.106Z,-3.40
2019-01-24T20:35:42.127Z,-3.50
2019-01-24T20:38:12.449Z,-3.50
2019-01-24T20:40:42.574Z,-3.60
2019-01-24T20:43:13.368Z,-3.50
2019-01-24T20:45:44.345Z,-3.60
2019-01-24T20:48:15.612Z,-3.60
2019-01-24T20:50:45.780Z,-3.60
2019-01-24T20:53:16.051Z,-3.60
2019-01-24T20:55:46.198Z,-3.50
2019-01-24T20:58:16.516Z,-3.60
2019-01-24T21:00:46.688Z,-3.50
2019-01-24T21:03:16.913Z,-3.60
2019-01-24T21:05:47.234Z,-3.60
2019-01-24T21:08:17.705Z,-3.60
2019-01-24T21:10:47.911Z,-3.70
2019-01-24T21:13:18.228Z,-3.50
2019-01-24T21:15:48.444Z,-3.60
2019-01-24T21:18:19.099Z,-3.60
2019-01-24T21:20:49.354Z,-3.60
2019-01-24T21:23:19.978Z,-3.70
2019-01-24T21:25:50.444Z,-3.70
2019-01-24T21:28:22.340Z,-3.70
2019-01-24T21:30:52.738Z,-3.70
2019-01-24T21:33:23.100Z,-3.70
2019-01-24T21:35:53.715Z,-3.70
2019-01-24T21:38:25.489Z,-3.70
2019-01-24T21:40:56.356Z,-3.80
2019-01-24T21:43:29.432Z,-3.80
2019-01-24T21:45:59.505Z,-3.80
2019-01-24T21:48:31.160Z,-3.70
2019-01-24T21:51:21.658Z,-3.80
2019-01-24T21:53:54.108Z,-3.70
2019-01-24T21:56:24.898Z,-3.70
2019-01-24T21:58:55.422Z,-3.70
2019-01-24T22:01:26.642Z,-3.70
2019-01-24T22:03:57.470Z,-3.70
2019-01-24T22:06:28.112Z,-3.80
2019-01-24T22:08:59.672Z,-3.90
2019-01-24T22:11:29.889Z,-3.90
2019-01-24T22:14:00.423Z,-3.80
2019-01-24T22:16:30.617Z,-3.80
2019-01-24T22:19:01.197Z,-3.80
2019-01-24T22:21:31.376Z,-3.80
2019-01-24T22:24:01.927Z,-3.80
2019-01-24T22:26:32.614Z,-3.80
2019-01-24T22:29:03.480Z,-3.70
2019-01-24T22:31:35.087Z,-3.90
2019-01-24T22:34:05.309Z,-3.80
2019-01-24T22:36:35.501Z,-3.90
2019-01-24T22:39:08.875Z,-3.80
2019-01-24T22:41:38.991Z,-3.90
2019-01-24T22:44:09.183Z,-3.90
2019-01-24T22:46:39.316Z,-3.90
2019-01-24T22:49:10.286Z,-3.90
2019-01-24T22:51:40.553Z,-3.80
2019-01-24T22:54:11.794Z,-3.90
2019-01-24T22:56:41.967Z,-3.90
2019-01-24T22:59:12.217Z,-3.90
2019-01-24T23:01:49.087Z,-3.90
2019-01-24T23:04:24.521Z,-3.80
2019-01-24T23:06:54.660Z,-3.80
2019-01-24T23:09:25.543Z,-3.80
2019-01-24T23:11:55.680Z,-3.90
2019-01-24T23:14:25.876Z,-3.90
2019-01-24T23:16:56.010Z,-3.90
2019-01-24T23:19:27.357Z,-3.90
2019-01-24T23:21:57.504Z,-3.80
2019-01-24T23:24:27.739Z,-3.70
2019-01-24T23:26:57.874Z,-3.80
2019-01-24T23:29:28.116Z,-3.80
2019-01-24T23:31:58.266Z,-3.70
2019-01-24T23:34:28.452Z,-3.80
2019-01-24T23:36:58.609Z,-3.80
2019-01-24T23:39:28.809Z,-3.70
2019-01-24T23:41:58.967Z,-3.90
2019-01-24T23:44:29.203Z,-3.90
2019-01-24T23:46:59.339Z,-3.90
2019-01-24T23:49:29.580Z,-4.00
2019-01-24T23:51:59.726Z,-4.00
2019-01-24T23:54:29.944Z,-4.00
2019-01-24T23:57:00.108Z,-4.00
2019-01-24T23:59:30.411Z,-3.90
